Time;durP1;ratioP1;P1;durP2;ratioP2;P2;SDS_P1;SDS_P2;PMS_P1;PMS_P2;Temp;Humidity;BMP_temperature;BMP_pressure;BME280_temperature;BME280_humidity;BME280_pressure;Samples;Min_cycle;Max_cycle;Signal;HPM_P1;HPM_P2
2022/07/05 00:02:07;;;;;;;3.83;1.30;;;20.60;58.40;;;;;;5018923;28;20478;-71
2022/07/05 00:04:35;;;;;;;3.60;1.10;;;20.50;58.40;;;;;;5034309;28;20505;-71
2022/07/05 00:07:20;;;;;;;4.80;1.30;;;20.50;58.50;;;;;;5047057;28;20514;-71
2022/07/05 00:09:50;;;;;;;4.00;1.30;;;20.40;58.60;;;;;;5050925;28;20472;-71
2022/07/05 00:12:19;;;;;;;3.80;1.00;;;20.40;58.60;;;;;;5049756;28;20579;-71
2022/07/05 00:14:48;;;;;;;4.30;1.30;;;20.40;58.70;;;;;;5046908;28;20452;-71
2022/07/05 00:17:17;;;;;;;3.60;1.30;;;20.40;58.80;;;;;;5048010;28;20498;-71
2022/07/05 00:19:45;;;;;;;3.50;1.10;;;20.40;58.80;;;;;;5049881;28;20455;-71
2022/07/05 00:22:14;;;;;;;3.87;1.10;;;20.30;58.90;;;;;;5046455;28;20485;-71
2022/07/05 00:24:42;;;;;;;4.50;1.20;;;20.30;59.00;;;;;;5045110;28;21078;-71
2022/07/05 00:27:10;;;;;;;3.37;1.13;;;20.30;59.00;;;;;;5049461;28;20491;-71
2022/07/05 00:29:38;;;;;;;3.27;1.10;;;20.20;59.20;;;;;;5034091;28;20471;-71
2022/07/05 00:32:07;;;;;;;4.83;1.10;;;20.20;59.30;;;;;;5014924;28;20595;-71
2022/07/05 00:34:35;;;;;;;3.70;1.43;;;20.10;59.40;;;;;;5043966;28;20470;-71
2022/07/05 00:37:03;;;;;;;3.73;1.00;;;20.10;59.40;;;;;;5018766;28;21138;-71
2022/07/05 00:39:33;;;;;;;4.03;1.10;;;20.10;59.40;;;;;;5016301;28;20459;-71
2022/07/05 00:42:01;;;;;;;3.97;1.13;;;20.00;59.50;;;;;;5043530;28;20498;-71
2022/07/05 00:44:31;;;;;;;5.10;1.70;;;20.00;59.50;;;;;;5036632;28;20484;-71
2022/07/05 00:46:59;;;;;;;4.03;1.40;;;20.00;59.50;;;;;;5031110;28;20483;-71
2022/07/05 00:49:27;;;;;;;4.10;1.70;;;20.00;59.60;;;;;;5046498;28;20467;-71
2022/07/05 00:52:02;;;;;;;6.60;1.30;;;20.00;59.60;;;;;;5045000;28;20492;-71
2022/07/05 00:54:48;;;;;;;9.00;1.20;;;20.00;59.60;;;;;;5044424;28;20485;-71
2022/07/05 00:57:16;;;;;;;4.60;1.43;;;20.00;59.70;;;;;;5049051;28;20525;-70
2022/07/05 00:59:44;;;;;;;4.20;1.10;;;19.90;59.80;;;;;;5043724;28;20482;-72
2022/07/05 01:02:19;;;;;;;3.33;1.20;;;19.90;59.90;;;;;;5044272;28;20484;-70
2022/07/05 01:04:51;;;;;;;4.63;1.60;;;19.80;59.90;;;;;;5048138;28;20474;-70
2022/07/05 01:07:22;;;;;;;3.77;1.40;;;19.80;60.00;;;;;;5017699;28;20461;-71
2022/07/05 01:09:52;;;;;;;3.73;1.27;;;19.70;60.00;;;;;;5027477;28;20452;-71
2022/07/05 01:12:20;;;;;;;5.63;1.40;;;19.70;60.10;;;;;;5026265;28;20475;-71
2022/07/05 01:14:49;;;;;;;5.23;1.33;;;19.70;60.10;;;;;;5029973;28;20493;-71
2022/07/05 01:17:17;;;;;;;4.27;1.67;;;19.70;60.20;;;;;;5045731;28;20489;-71
2022/07/05 01:19:45;;;;;;;4.73;1.20;;;19.70;60.20;;;;;;5044770;28;20518;-71
2022/07/05 01:22:18;;;;;;;4.90;1.30;;;19.60;60.20;;;;;;5044393;28;20502;-71
2022/07/05 01:24:48;;;;;;;3.40;0.97;;;19.60;60.20;;;;;;5044853;28;20458;-71
2022/07/05 01:27:16;;;;;;;4.13;1.30;;;19.50;60.30;;;;;;5028228;28;20478;-70
2022/07/05 01:29:44;;;;;;;3.73;1.57;;;19.40;60.40;;;;;;5045978;28;20459;-70
2022/07/05 01:32:18;;;;;;;3.60;1.20;;;19.40;60.60;;;;;;5045882;28;21108;-71
2022/07/05 01:34:47;;;;;;;3.53;1.10;;;19.40;60.60;;;;;;5040018;28;20816;-70
2022/07/05 01:37:15;;;;;;;6.20;1.30;;;19.30;60.70;;;;;;5033803;28;20577;-71
2022/07/05 01:39:44;;;;;;;3.73;1.27;;;19.30;60.80;;;;;;5049301;28;20472;-71
2022/07/05 01:42:14;;;;;;;3.50;1.37;;;19.20;61.00;;;;;;5012954;28;20463;-71
2022/07/05 01:44:42;;;;;;;5.60;1.70;;;19.20;61.00;;;;;;5049949;28;20460;-71
2022/07/05 01:47:10;;;;;;;3.40;1.20;;;19.20;61.10;;;;;;5029388;28;20591;-71
2022/07/05 01:49:44;;;;;;;3.97;1.33;;;19.20;61.20;;;;;;5032780;28;20483;-71
2022/07/05 01:52:13;;;;;;;3.67;1.40;;;19.20;61.20;;;;;;5037412;28;21190;-71
2022/07/05 01:54:43;;;;;;;5.10;1.50;;;19.10;61.20;;;;;;5026265;28;20461;-71
2022/07/05 01:57:11;;;;;;;3.97;1.40;;;19.10;61.30;;;;;;5029293;28;20611;-70
2022/07/05 01:59:41;;;;;;;5.13;1.50;;;19.10;61.40;;;;;;5029174;28;20506;-71
2022/07/05 02:02:09;;;;;;;4.00;1.80;;;19.10;61.40;;;;;;5033351;28;21013;-71
2022/07/05 02:04:37;;;;;;;3.77;1.47;;;19.00;61.40;;;;;;5018323;28;20481;-71
2022/07/05 02:07:10;;;;;;;5.70;1.17;;;19.00;61.40;;;;;;5030911;28;20478;-71
2022/07/05 02:09:39;;;;;;;4.10;1.73;;;18.90;61.50;;;;;;5043241;28;20469;-71
2022/07/05 02:12:08;;;;;;;3.60;1.30;;;18.80;61.60;;;;;;5016691;28;21062;-70
2022/07/05 02:14:36;;;;;;;3.50;1.23;;;18.80;61.70;;;;;;5026166;28;20563;-70
2022/07/05 02:17:09;;;;;;;4.10;1.30;;;18.80;61.80;;;;;;5040736;28;20560;-71
2022/07/05 02:19:39;;;;;;;3.50;1.20;;;18.80;61.80;;;;;;5016648;28;20461;-70
2022/07/05 02:22:09;;;;;;;3.60;1.40;;;18.80;61.90;;;;;;5032778;28;21000;-70
2022/07/05 02:24:38;;;;;;;4.13;1.50;;;18.80;61.90;;;;;;5039681;28;20517;-70
2022/07/05 02:27:15;;;;;;;3.97;1.57;;;18.80;61.90;;;;;;5021964;28;20461;-70
2022/07/05 02:29:44;;;;;;;6.07;1.50;;;18.80;61.90;;;;;;5018175;28;20496;-71
2022/07/05 02:32:15;;;;;;;4.53;1.30;;;18.70;62.00;;;;;;5023959;28;20484;-72
2022/07/05 02:34:43;;;;;;;4.10;1.30;;;18.70;62.00;;;;;;5024211;28;21108;-71
2022/07/05 02:37:13;;;;;;;3.40;1.00;;;18.60;62.10;;;;;;5014663;28;20484;-71
2022/07/05 02:39:41;;;;;;;3.60;1.30;;;18.60;62.10;;;;;;5023965;28;20515;-71
2022/07/05 02:42:10;;;;;;;3.80;1.50;;;18.60;62.20;;;;;;5017861;28;20456;-71
2022/07/05 02:44:39;;;;;;;3.77;1.50;;;18.50;62.40;;;;;;5032151;28;20519;-71
2022/07/05 02:47:08;;;;;;;3.67;1.47;;;18.50;62.40;;;;;;5024524;28;20487;-71
2022/07/05 02:49:37;;;;;;;3.47;1.37;;;18.50;62.50;;;;;;5040439;28;20632;-70
2022/07/05 02:52:07;;;;;;;3.90;1.20;;;18.50;62.50;;;;;;5042990;28;20886;-70
2022/07/05 02:54:36;;;;;;;4.87;1.60;;;18.50;62.60;;;;;;5032672;28;21069;-71
2022/07/05 02:57:06;;;;;;;4.60;1.57;;;18.60;62.50;;;;;;5040994;28;20493;-71
2022/07/05 02:59:33;;;;;;;3.97;1.30;;;18.60;62.40;;;;;;5037516;28;20521;-71
2022/07/05 03:02:03;;;;;;;4.17;1.30;;;18.60;62.40;;;;;;5027120;28;20482;-70
2022/07/05 03:04:31;;;;;;;3.73;1.40;;;18.50;62.50;;;;;;5044848;28;20468;-71
2022/07/05 03:07:01;;;;;;;4.80;1.33;;;18.50;62.60;;;;;;5042868;28;20905;-70
2022/07/05 03:09:30;;;;;;;4.80;1.30;;;18.50;62.50;;;;;;5033361;28;20461;-70
2022/07/05 03:12:01;;;;;;;4.83;1.47;;;18.40;62.50;;;;;;5028472;28;20486;-70
2022/07/05 03:14:31;;;;;;;4.90;1.43;;;18.40;62.60;;;;;;5050689;28;20487;-70
2022/07/05 03:16:59;;;;;;;3.70;1.47;;;18.30;62.60;;;;;;5031425;28;20491;-71
2022/07/05 03:19:28;;;;;;;3.77;1.60;;;18.30;62.70;;;;;;5040923;28;20481;-71
2022/07/05 03:21:56;;;;;;;3.50;1.40;;;18.20;62.70;;;;;;5048992;28;20973;-70
2022/07/05 03:24:25;;;;;;;3.80;1.60;;;18.20;62.80;;;;;;5046527;28;20456;-71
2022/07/05 03:26:54;;;;;;;4.93;1.40;;;18.10;62.80;;;;;;5032823;28;20474;-70
2022/07/05 03:29:23;;;;;;;4.13;1.90;;;18.10;62.90;;;;;;5033473;28;20455;-70
2022/07/05 03:31:51;;;;;;;4.10;1.80;;;18.10;63.00;;;;;;5030258;28;20487;-70
2022/07/05 03:34:20;;;;;;;5.43;1.70;;;18.10;63.00;;;;;;5030262;28;20475;-70
2022/07/05 03:36:49;;;;;;;4.20;1.77;;;18.10;63.00;;;;;;5050788;28;20569;-70
2022/07/05 03:39:19;;;;;;;4.30;1.47;;;18.00;63.10;;;;;;5024731;28;20462;-71
2022/07/05 03:41:49;;;;;;;4.37;1.37;;;18.00;63.10;;;;;;5017750;28;20819;-71
2022/07/05 03:44:21;;;;;;;5.50;1.87;;;18.00;63.20;;;;;;5044639;28;20456;-71
2022/07/05 03:46:49;;;;;;;6.13;1.70;;;17.90;63.30;;;;;;5027039;28;20486;-71
2022/07/05 03:49:19;;;;;;;6.80;1.53;;;18.00;63.40;;;;;;5033417;28;21098;-71
2022/07/05 03:51:49;;;;;;;4.07;1.77;;;18.00;63.40;;;;;;5022070;28;20456;-70
2022/07/05 03:54:17;;;;;;;5.10;1.93;;;18.00;63.40;;;;;;5035157;28;20564;-71
2022/07/05 03:56:45;;;;;;;3.20;1.20;;;18.00;63.50;;;;;;5045904;28;20491;-71
2022/07/05 03:59:16;;;;;;;5.20;1.57;;;18.00;63.50;;;;;;5021765;28;20539;-71
2022/07/05 04:01:45;;;;;;;3.80;1.50;;;18.10;63.50;;;;;;5047298;28;20515;-71
2022/07/05 04:04:14;;;;;;;3.77;1.50;;;18.00;63.50;;;;;;5035732;28;20526;-71
2022/07/05 04:06:43;;;;;;;5.43;2.17;;;18.00;63.50;;;;;;5046394;28;20496;-70
2022/07/05 04:09:12;;;;;;;3.40;1.17;;;18.10;63.60;;;;;;5023609;28;20517;-71
2022/07/05 04:11:40;;;;;;;3.83;1.70;;;18.10;63.60;;;;;;5031008;28;20488;-70
2022/07/05 04:14:09;;;;;;;4.00;1.90;;;18.10;63.70;;;;;;5030254;28;20487;-70
2022/07/05 04:16:40;;;;;;;4.20;1.73;;;18.20;63.70;;;;;;5024643;28;20484;-70
2022/07/05 04:19:09;;;;;;;4.00;1.63;;;18.20;63.80;;;;;;5020148;28;21418;-71
2022/07/05 04:21:38;;;;;;;4.10;1.60;;;18.20;63.80;;;;;;5026737;28;20451;-71
2022/07/05 04:24:07;;;;;;;4.47;1.90;;;18.20;63.80;;;;;;5043969;28;20470;-70
2022/07/05 04:26:36;;;;;;;4.50;1.90;;;18.30;63.90;;;;;;5019967;28;20483;-69
2022/07/05 04:29:04;;;;;;;5.10;1.77;;;18.30;63.90;;;;;;5027421;28;20464;-69
2022/07/05 04:31:36;;;;;;;6.13;1.60;;;18.40;64.00;;;;;;5035393;28;20518;-69
2022/07/05 04:34:06;;;;;;;5.80;1.97;;;18.50;64.00;;;;;;5019523;28;20563;-69
2022/07/05 04:36:40;;;;;;;3.93;1.67;;;18.60;63.90;;;;;;5029189;28;20501;-70
2022/07/05 04:39:09;;;;;;;5.03;1.50;;;18.60;63.80;;;;;;5033343;28;20469;-70
2022/07/05 04:41:40;;;;;;;3.60;1.63;;;18.70;63.80;;;;;;5030576;28;20461;-70
2022/07/05 04:44:10;;;;;;;4.90;1.50;;;18.90;63.90;;;;;;5038387;28;20491;-71
2022/07/05 04:46:39;;;;;;;4.10;1.70;;;19.00;64.00;;;;;;5033531;28;20643;-70
2022/07/05 04:49:10;;;;;;;4.17;1.90;;;19.10;64.00;;;;;;5016686;28;21186;-70
2022/07/05 04:51:39;;;;;;;4.30;1.80;;;19.20;64.10;;;;;;5047927;28;20542;-70
2022/07/05 04:54:14;;;;;;;5.67;2.03;;;19.30;64.10;;;;;;5043063;28;20473;-70
2022/07/05 04:56:41;;;;;;;4.63;1.67;;;19.40;64.20;;;;;;5048411;28;20492;-70
2022/07/05 04:59:09;;;;;;;5.00;1.90;;;19.60;64.20;;;;;;5045937;28;20459;-70
2022/07/05 05:01:37;;;;;;;4.30;2.00;;;19.70;64.20;;;;;;5038908;28;21008;-70
2022/07/05 05:04:05;;;;;;;5.83;1.40;;;19.80;64.30;;;;;;5047109;28;20959;-70
2022/07/05 05:06:35;;;;;;;4.67;2.10;;;19.90;64.30;;;;;;5030966;28;20486;-70
2022/07/05 05:09:03;;;;;;;4.13;1.87;;;20.00;64.30;;;;;;5044308;28;20814;-70
2022/07/05 05:11:31;;;;;;;4.30;1.90;;;20.20;64.30;;;;;;5042732;28;20458;-70
2022/07/05 05:13:59;;;;;;;5.50;2.03;;;20.30;64.20;;;;;;5046316;28;20572;-70
2022/07/05 05:16:27;;;;;;;4.17;1.87;;;20.40;64.20;;;;;;5049143;28;20479;-70
2022/07/05 05:18:56;;;;;;;4.50;1.80;;;20.60;64.20;;;;;;5050091;28;20476;-70
2022/07/05 05:21:24;;;;;;;5.50;2.13;;;20.70;64.20;;;;;;5044405;28;20477;-70
2022/07/05 05:23:53;;;;;;;4.57;1.90;;;20.80;64.20;;;;;;5048662;28;20472;-70
2022/07/05 05:26:21;;;;;;;5.00;2.00;;;21.00;64.20;;;;;;5042854;28;20479;-70
2022/07/05 05:28:49;;;;;;;4.40;1.53;;;21.10;64.20;;;;;;5042637;28;20463;-70
2022/07/05 05:31:18;;;;;;;7.50;2.10;;;21.20;64.00;;;;;;5050886;28;21080;-70
2022/07/05 05:33:47;;;;;;;5.37;1.93;;;21.40;63.90;;;;;;5048791;28;20510;-70
2022/07/05 05:36:15;;;;;;;6.47;2.00;;;21.50;63.80;;;;;;5044771;28;20486;-70
2022/07/05 05:38:43;;;;;;;5.80;2.00;;;21.70;63.90;;;;;;5048126;28;20482;-70
2022/07/05 05:41:19;;;;;;;4.47;2.00;;;21.90;64.30;;;;;;5043323;28;20841;-70
2022/07/05 05:43:46;;;;;;;8.17;1.80;;;22.50;64.00;;;;;;5026851;28;20484;-70
2022/07/05 05:46:14;;;;;;;5.10;1.90;;;23.40;62.50;;;;;;5045676;28;20475;-70
2022/07/05 05:48:43;;;;;;;4.30;1.70;;;24.50;60.50;;;;;;5041982;28;20460;-70
2022/07/05 05:51:11;;;;;;;4.03;1.50;;;25.60;58.40;;;;;;5034764;28;20463;-70
2022/07/05 05:53:39;;;;;;;6.43;2.37;;;26.60;56.90;;;;;;5048317;28;20842;-70
2022/07/05 05:56:07;;;;;;;4.40;1.70;;;27.50;55.60;;;;;;5048158;28;20479;-70
2022/07/05 05:58:36;;;;;;;3.93;1.43;;;28.40;54.40;;;;;;5049044;28;20458;-70
2022/07/05 06:01:10;;;;;;;4.27;1.33;;;29.00;53.10;;;;;;5047368;28;20466;-70
2022/07/05 06:03:40;;;;;;;11.27;2.00;;;29.60;52.10;;;;;;5046214;28;20545;-70
2022/07/05 06:06:08;;;;;;;5.23;1.50;;;30.20;51.30;;;;;;5017511;28;20476;-70
2022/07/05 06:08:36;;;;;;;6.93;1.27;;;30.70;50.30;;;;;;5035676;28;20998;-70
2022/07/05 06:11:04;;;;;;;5.60;1.63;;;31.00;49.50;;;;;;5042427;28;20457;-70
2022/07/05 06:13:32;;;;;;;4.60;1.50;;;31.30;48.90;;;;;;5042963;28;20457;-70
2022/07/05 06:16:02;;;;;;;5.30;1.60;;;31.20;48.60;;;;;;5036252;28;20471;-70
2022/07/05 06:18:30;;;;;;;4.80;1.20;;;30.70;48.80;;;;;;5042480;28;20472;-71
2022/07/05 06:20:58;;;;;;;3.97;1.30;;;30.10;49.10;;;;;;5044157;28;20994;-70
2022/07/05 06:23:26;;;;;;;5.07;1.60;;;29.50;49.40;;;;;;5048987;28;20464;-70
2022/07/05 06:25:54;;;;;;;4.80;1.60;;;29.00;49.60;;;;;;5049067;28;20828;-70
2022/07/05 06:28:21;;;;;;;3.97;1.30;;;28.50;49.90;;;;;;5051564;28;20469;-70
2022/07/05 06:30:50;;;;;;;4.43;1.47;;;28.00;50.10;;;;;;5049029;28;20538;-71
2022/07/05 06:33:19;;;;;;;5.33;1.70;;;27.50;50.40;;;;;;5045888;28;20488;-71
2022/07/05 06:35:47;;;;;;;4.47;1.43;;;27.00;50.70;;;;;;5052996;28;20495;-70
2022/07/05 06:38:15;;;;;;;4.43;1.53;;;26.50;51.00;;;;;;5032103;28;20458;-70
2022/07/05 06:40:43;;;;;;;7.40;2.03;;;26.10;51.50;;;;;;5045451;28;20469;-70
2022/07/05 06:43:14;;;;;;;6.13;1.70;;;25.60;51.90;;;;;;5048229;28;20457;-71
2022/07/05 06:45:57;;;;;;;4.00;1.30;;;25.20;52.40;;;;;;5045899;28;20961;-71
2022/07/05 06:48:26;;;;;;;4.20;1.47;;;24.80;52.80;;;;;;5042114;28;20471;-70
2022/07/05 06:50:54;;;;;;;4.10;1.57;;;24.40;53.30;;;;;;5053184;28;20539;-70
2022/07/05 06:53:22;;;;;;;4.57;1.40;;;24.10;53.70;;;;;;5053016;28;20492;-70
2022/07/05 06:55:50;;;;;;;5.40;1.40;;;23.90;54.10;;;;;;5053747;28;21267;-70
2022/07/05 06:58:23;;;;;;;4.07;1.30;;;23.80;54.50;;;;;;5046095;28;20457;-70
2022/07/05 07:00:51;;;;;;;4.10;1.40;;;23.60;54.70;;;;;;5045244;28;20477;-71
2022/07/05 07:03:40;;;;;;;3.70;1.53;;;23.50;55.00;;;;;;5044224;28;20470;-70
2022/07/05 07:06:28;;;;;;;6.43;1.53;;;23.50;55.40;;;;;;5047376;28;20674;-70
2022/07/05 07:11:42;;;;;;;3.80;1.40;;;23.50;55.40;;;;;;5052544;28;20465;-71
2022/07/05 07:14:10;;;;;;;4.00;1.47;;;23.50;55.50;;;;;;5051898;28;20474;-70
2022/07/05 07:16:38;;;;;;;4.83;1.27;;;23.50;55.60;;;;;;5052542;28;20478;-71
2022/07/05 07:19:08;;;;;;;4.40;1.80;;;23.50;55.80;;;;;;5042919;28;20449;-70
2022/07/05 07:21:41;;;;;;;3.60;1.30;;;23.50;55.70;;;;;;5050502;28;20460;-70
2022/07/05 07:24:10;;;;;;;10.63;1.83;;;23.50;55.70;;;;;;5054081;28;20470;-70
2022/07/05 07:29:24;;;;;;;7.70;1.70;;;23.50;55.50;;;;;;5049099;28;21173;-70
2022/07/05 07:31:52;;;;;;;5.80;1.50;;;23.50;55.80;;;;;;5038419;28;20491;-71
2022/07/05 07:34:21;;;;;;;4.60;1.73;;;23.50;55.80;;;;;;5046416;28;20453;-70
2022/07/05 07:36:49;;;;;;;4.20;1.60;;;23.50;55.80;;;;;;5049093;28;20528;-70
2022/07/05 07:39:17;;;;;;;4.63;1.50;;;23.50;55.70;;;;;;5047874;28;20557;-70
2022/07/05 07:41:46;;;;;;;4.77;1.90;;;23.50;55.50;;;;;;5048054;28;20490;-70
2022/07/05 07:44:14;;;;;;;3.87;1.13;;;23.50;55.50;;;;;;5046767;28;20458;-70
2022/07/05 07:46:42;;;;;;;3.60;1.37;;;23.50;55.40;;;;;;5030751;28;20473;-71
2022/07/05 07:49:10;;;;;;;3.60;1.10;;;23.50;55.30;;;;;;5050400;28;20455;-71
2022/07/05 07:51:40;;;;;;;4.70;1.70;;;23.60;55.30;;;;;;5038669;28;20457;-71
2022/07/05 07:54:08;;;;;;;5.13;1.53;;;23.60;55.20;;;;;;5033203;28;20455;-70
2022/07/05 07:56:36;;;;;;;4.67;1.50;;;23.60;55.20;;;;;;5046130;28;20504;-70
2022/07/05 07:59:04;;;;;;;5.60;1.50;;;23.60;55.20;;;;;;5040908;28;20459;-71
2022/07/05 08:01:32;;;;;;;6.80;1.23;;;23.60;55.00;;;;;;5048699;28;21113;-70
2022/07/05 08:04:05;;;;;;;4.70;1.60;;;23.60;55.10;;;;;;5041368;28;20505;-70
2022/07/05 08:06:33;;;;;;;4.23;1.57;;;23.70;55.00;;;;;;5042545;28;20577;-70
2022/07/05 08:09:03;;;;;;;7.27;2.27;;;23.70;55.00;;;;;;5047223;28;20481;-70
2022/07/05 08:11:31;;;;;;;5.97;1.37;;;23.70;54.80;;;;;;5050615;28;20455;-70
2022/07/05 08:13:59;;;;;;;3.77;1.40;;;23.70;54.80;;;;;;5052128;28;20451;-70
2022/07/05 08:16:27;;;;;;;5.93;1.70;;;23.80;54.80;;;;;;5048302;28;20477;-70
2022/07/05 08:21:43;;;;;;;5.60;1.73;;;23.80;54.80;;;;;;5011555;28;20482;-70
2022/07/05 08:24:13;;;;;;;4.67;1.57;;;23.80;54.80;;;;;;5037127;28;20457;-71
2022/07/05 08:26:48;;;;;;;4.47;1.60;;;23.90;54.80;;;;;;5042013;28;20479;-70
2022/07/05 08:29:16;;;;;;;5.00;1.50;;;23.90;54.80;;;;;;5040579;28;20957;-70
2022/07/05 08:31:52;;;;;;;8.40;1.53;;;24.00;54.70;;;;;;5041961;28;20589;-70
2022/07/05 08:34:20;;;;;;;6.90;1.83;;;24.00;54.80;;;;;;5043240;28;21461;-70
2022/07/05 08:36:49;;;;;;;6.97;1.77;;;24.00;54.80;;;;;;5041199;28;20488;-71
2022/07/05 08:39:18;;;;;;;5.00;1.40;;;24.00;54.70;;;;;;5042566;28;20446;-70
2022/07/05 08:41:50;;;;;;;5.17;1.70;;;24.10;54.70;;;;;;5034153;28;20559;-70
2022/07/05 08:44:20;;;;;;;4.60;1.63;;;24.10;54.70;;;;;;5046502;28;20474;-71
2022/07/05 08:46:50;;;;;;;5.13;1.70;;;24.20;54.60;;;;;;5027402;28;20479;-70
2022/07/05 08:49:23;;;;;;;4.03;1.30;;;24.20;54.60;;;;;;5047630;28;20450;-70
2022/07/05 08:51:52;;;;;;;4.77;1.57;;;24.20;54.40;;;;;;5053830;28;20455;-70
2022/07/05 08:54:23;;;;;;;6.30;2.60;;;24.20;54.20;;;;;;5037223;28;20455;-70
2022/07/05 08:56:52;;;;;;;5.00;1.67;;;24.30;53.80;;;;;;5048792;28;20506;-70
2022/07/05 08:59:38;;;;;;;5.90;1.90;;;24.30;53.60;;;;;;5054766;28;20465;-70
2022/07/05 09:02:11;;;;;;;8.33;2.20;;;24.30;53.40;;;;;;5054536;28;20510;-70
2022/07/05 09:04:44;;;;;;;5.00;1.93;;;24.30;53.20;;;;;;5054454;28;20459;-71
2022/07/05 09:07:16;;;;;;;6.13;1.90;;;24.40;52.90;;;;;;5049887;28;20472;-70
2022/07/05 09:09:48;;;;;;;6.03;1.90;;;24.40;52.90;;;;;;5050447;28;20452;-70
2022/07/05 09:12:16;;;;;;;4.43;1.90;;;24.40;52.60;;;;;;5050692;28;21146;-70
2022/07/05 09:14:56;;;;;;;4.50;1.83;;;24.50;52.40;;;;;;5047148;28;20547;-70
2022/07/05 09:17:26;;;;;;;4.00;1.47;;;24.50;52.40;;;;;;5047782;28;20510;-70
2022/07/05 09:20:09;;;;;;;5.40;1.40;;;24.60;52.20;;;;;;5034710;28;20471;-70
2022/07/05 09:22:44;;;;;;;4.43;1.73;;;24.70;52.10;;;;;;5050913;28;20549;-70
2022/07/05 09:25:19;;;;;;;6.40;1.50;;;24.70;52.10;;;;;;5044943;28;20470;-70
2022/07/05 09:27:55;;;;;;;5.57;1.47;;;24.80;52.00;;;;;;5047956;28;20554;-70
2022/07/05 09:30:36;;;;;;;3.70;1.50;;;24.80;51.90;;;;;;5018619;28;20460;-70
2022/07/05 09:33:06;;;;;;;6.27;1.93;;;24.90;51.80;;;;;;5055204;28;20866;-70
2022/07/05 09:35:35;;;;;;;4.10;1.37;;;25.00;51.90;;;;;;5050082;28;20474;-70
2022/07/05 09:38:04;;;;;;;5.10;1.70;;;25.00;51.70;;;;;;5019809;28;20453;-70
2022/07/05 09:40:45;;;;;;;4.63;1.67;;;25.10;51.70;;;;;;5048029;28;20445;-70
2022/07/05 09:43:15;;;;;;;4.80;1.30;;;25.10;51.60;;;;;;5050263;28;21302;-70
2022/07/05 09:45:57;;;;;;;3.77;1.40;;;25.20;51.50;;;;;;5049799;28;20467;-70
2022/07/05 09:48:26;;;;;;;4.57;1.60;;;25.30;51.30;;;;;;5046356;28;20961;-70
2022/07/05 09:51:08;;;;;;;5.63;2.00;;;25.30;51.30;;;;;;5048226;28;20452;-70
2022/07/05 09:53:58;;;;;;;4.33;1.67;;;25.40;51.20;;;;;;5050523;28;20465;-70
2022/07/05 09:56:44;;;;;;;6.80;1.90;;;25.40;51.30;;;;;;5033105;28;21175;-70
2022/07/05 09:59:18;;;;;;;5.00;1.57;;;25.30;51.20;;;;;;5046528;28;20458;-70
2022/07/05 10:01:46;;;;;;;5.00;1.50;;;25.30;51.20;;;;;;5036107;28;20991;-70
2022/07/05 10:04:14;;;;;;;3.97;1.73;;;25.20;51.20;;;;;;5045245;28;20504;-71
2022/07/05 10:06:43;;;;;;;4.13;1.43;;;25.20;51.20;;;;;;5042402;28;20493;-70
2022/07/05 10:09:14;;;;;;;4.30;1.67;;;25.10;51.00;;;;;;5046017;28;20443;-70
2022/07/05 10:11:45;;;;;;;3.63;1.30;;;25.10;50.90;;;;;;5021366;28;20500;-70
2022/07/05 10:14:17;;;;;;;4.13;1.63;;;25.10;51.00;;;;;;5044026;28;21141;-70
2022/07/05 10:17:01;;;;;;;4.90;1.83;;;25.10;51.00;;;;;;5043692;28;20928;-70
2022/07/05 10:19:35;;;;;;;4.30;1.47;;;25.20;51.10;;;;;;5041261;28;20490;-70
2022/07/05 10:22:05;;;;;;;4.70;1.40;;;25.20;51.00;;;;;;5049974;28;20458;-70
2022/07/05 10:24:46;;;;;;;4.20;1.90;;;25.30;50.90;;;;;;5034193;28;20453;-70
2022/07/05 10:27:18;;;;;;;4.43;1.50;;;25.40;50.90;;;;;;5047951;28;20782;-70
2022/07/05 10:29:49;;;;;;;4.37;1.50;;;25.50;50.90;;;;;;5033819;28;20475;-70
2022/07/05 10:32:17;;;;;;;7.40;1.90;;;25.50;50.80;;;;;;5041324;28;20488;-71
2022/07/05 10:34:47;;;;;;;6.77;1.50;;;25.60;50.60;;;;;;5050380;28;20447;-71
2022/07/05 10:37:33;;;;;;;4.47;1.40;;;25.60;50.60;;;;;;5053405;28;20475;-70
2022/07/05 10:40:06;;;;;;;6.40;1.63;;;25.60;50.50;;;;;;5043948;28;20461;-70
2022/07/05 10:42:39;;;;;;;6.70;2.00;;;25.60;50.50;;;;;;5042369;28;20545;-70
2022/07/05 10:45:30;;;;;;;7.47;1.80;;;25.60;50.60;;;;;;5037143;28;20451;-70
2022/07/05 10:48:18;;;;;;;4.97;1.40;;;25.60;50.40;;;;;;5049887;28;20459;-70
2022/07/05 10:50:49;;;;;;;3.87;1.53;;;25.60;50.50;;;;;;5028291;28;20485;-70
2022/07/05 10:53:18;;;;;;;8.43;1.43;;;25.70;50.20;;;;;;5046578;28;20556;-70
2022/07/05 10:55:52;;;;;;;3.77;1.27;;;25.70;50.10;;;;;;5044090;28;20477;-70
2022/07/05 10:58:30;;;;;;;4.33;1.50;;;25.80;50.20;;;;;;5050568;28;20469;-70
2022/07/05 11:01:33;;;;;;;3.77;1.10;;;25.80;50.10;;;;;;5048578;28;20471;-70
2022/07/05 11:04:29;;;;;;;3.60;1.30;;;25.70;49.90;;;;;;5049879;28;20448;-70
2022/07/05 11:06:58;;;;;;;5.93;1.37;;;25.70;50.00;;;;;;5055288;28;20483;-71
2022/07/05 11:09:29;;;;;;;4.40;1.80;;;25.60;49.70;;;;;;5034936;28;20457;-70
2022/07/05 11:12:08;;;;;;;4.77;1.50;;;25.60;50.10;;;;;;5045007;28;20468;-70
2022/07/05 11:15:08;;;;;;;5.80;1.53;;;25.60;50.10;;;;;;5043160;28;20456;-70
2022/07/05 11:17:37;;;;;;;3.97;1.37;;;25.50;49.30;;;;;;5038967;28;21063;-70
2022/07/05 11:20:32;;;;;;;5.07;1.73;;;25.50;49.70;;;;;;5037137;28;21020;-70
2022/07/05 11:23:06;;;;;;;3.93;1.20;;;25.60;49.60;;;;;;5023931;28;20476;-71
2022/07/05 11:25:36;;;;;;;5.30;1.30;;;25.70;49.30;;;;;;5043013;28;21071;-70
2022/07/05 11:28:19;;;;;;;5.30;1.43;;;25.70;48.90;;;;;;5052353;28;20534;-71
2022/07/05 11:30:58;;;;;;;4.20;1.30;;;25.70;48.90;;;;;;5051044;28;20533;-70
2022/07/05 11:33:32;;;;;;;4.33;1.30;;;25.70;48.90;;;;;;5043147;28;20539;-70
2022/07/05 11:36:00;;;;;;;9.67;1.30;;;25.80;48.90;;;;;;5049876;28;20998;-70
2022/07/05 11:38:30;;;;;;;4.10;1.37;;;25.90;48.70;;;;;;5049589;28;20480;-71
2022/07/05 11:41:18;;;;;;;4.40;1.50;;;26.00;48.90;;;;;;5034529;28;20465;-70
2022/07/05 11:43:57;;;;;;;4.20;1.20;;;26.00;48.70;;;;;;5048268;28;20471;-70
2022/07/05 11:46:29;;;;;;;3.93;1.30;;;26.10;48.30;;;;;;5041564;28;20864;-70
2022/07/05 11:49:20;;;;;;;4.00;1.43;;;26.10;48.20;;;;;;5049985;28;20570;-70
2022/07/05 11:51:55;;;;;;;3.80;1.10;;;26.00;48.20;;;;;;5047276;28;20466;-70
2022/07/05 11:54:24;;;;;;;4.47;1.37;;;26.10;48.00;;;;;;5051512;28;20506;-70
2022/07/05 11:56:53;;;;;;;5.00;1.50;;;26.10;48.10;;;;;;5050604;28;20492;-70
2022/07/05 11:59:22;;;;;;;5.17;1.87;;;26.20;48.20;;;;;;5049300;28;20493;-71
2022/07/05 12:01:52;;;;;;;3.40;1.20;;;26.20;48.20;;;;;;5040191;28;20479;-70
2022/07/05 12:04:25;;;;;;;3.80;1.50;;;26.20;48.20;;;;;;5046457;28;20533;-70
2022/07/05 12:06:55;;;;;;;4.30;1.53;;;26.10;47.90;;;;;;5052772;28;20493;-70
2022/07/05 12:09:25;;;;;;;9.40;1.70;;;26.00;48.00;;;;;;5047925;28;21029;-71
2022/07/05 12:14:49;;;;;;;5.17;1.60;;;26.00;48.00;;;;;;5048174;28;20449;-70
2022/07/05 12:17:20;;;;;;;10.73;1.93;;;26.00;48.20;;;;;;5044148;28;20485;-70
2022/07/05 12:19:54;;;;;;;3.80;1.60;;;26.00;48.20;;;;;;5046401;28;20451;-69
2022/07/05 12:22:30;;;;;;;4.70;1.63;;;26.10;48.30;;;;;;5046782;28;20456;-69
2022/07/05 12:24:59;;;;;;;5.33;1.33;;;26.20;48.20;;;;;;5047117;28;21004;-69
2022/07/05 12:27:28;;;;;;;3.80;1.47;;;26.30;48.00;;;;;;5049366;28;20463;-69
2022/07/05 12:29:56;;;;;;;4.30;1.60;;;26.30;47.90;;;;;;5048782;28;20448;-69
2022/07/05 12:32:26;;;;;;;4.10;1.60;;;26.30;48.00;;;;;;5033697;28;20481;-69
2022/07/05 12:34:54;;;;;;;4.33;1.80;;;26.40;47.90;;;;;;5038615;28;20481;-69
2022/07/05 12:37:29;;;;;;;3.70;1.60;;;26.50;47.90;;;;;;5043343;28;21019;-69
2022/07/05 12:40:05;;;;;;;6.37;1.60;;;26.50;48.00;;;;;;5048102;28;20955;-69
2022/07/05 12:42:34;;;;;;;3.53;1.33;;;26.50;48.00;;;;;;5043658;28;20557;-69
2022/07/05 12:45:10;;;;;;;5.40;1.40;;;26.60;48.00;;;;;;5043517;28;20466;-69
2022/07/05 12:47:51;;;;;;;4.63;1.60;;;26.60;47.70;;;;;;5026008;28;20515;-69
2022/07/05 12:50:19;;;;;;;7.23;1.73;;;26.60;47.70;;;;;;5031933;28;20469;-69
2022/07/05 12:58:47;;;;;;;6.00;2.20;;;26.70;47.50;;;;;;5022756;28;20515;-70
2022/07/05 13:01:26;;;;;;;4.23;1.53;;;26.70;47.20;;;;;;5009104;28;20481;-69
2022/07/05 13:04:05;;;;;;;6.17;1.67;;;26.60;46.80;;;;;;5037361;28;20452;-69
2022/07/05 13:14:54;;;;;;;7.80;1.57;;;26.70;46.50;;;;;;5033936;28;20560;-69
2022/07/05 13:30:02;;;;;;;4.07;1.37;;;26.90;45.30;;;;;;5034907;28;20414;-70
2022/07/05 13:32:31;;;;;;;6.80;1.93;;;26.90;45.90;;;;;;5032045;28;20835;-70
2022/07/05 13:34:59;;;;;;;6.80;1.80;;;27.00;45.80;;;;;;5037082;28;20466;-70
2022/07/05 13:37:27;;;;;;;6.00;1.37;;;27.00;45.70;;;;;;5033645;28;20478;-69
2022/07/05 13:39:55;;;;;;;4.07;1.40;;;27.00;45.70;;;;;;5034170;28;20560;-69
2022/07/05 13:42:23;;;;;;;4.17;1.50;;;27.10;45.40;;;;;;5031066;28;20705;-69
2022/07/05 13:44:52;;;;;;;4.57;1.37;;;27.10;45.30;;;;;;5036090;28;20450;-69